Pagina principale
METAR-TAF:

METAR-TAF

Aeroporti :

Messina, Italia

latitudine: 38-12N, longitudine: 015-33E, altezza: 59 m

Osservazione

Il bollettino è stato emesso 6 ore e 50 minuti fa, alle 17:55 UTC
Vento 5 kt da sud-ovest
Temperature 23°C
Umidità 27%
Pressione 1016 hPa
Visibilità 10 km o più
nessuna nube inferiore a 1500 m e nessun cumulonembo

METAR: LICF 151755Z 23005KT CAVOK 23/03 Q1016 RMK OVC FEW090 OVC200 QUK / QUL / VIS MAR 20 KM MON LIB NC VIS MIN 9999

Ora: 02:45 (00:45 UTC)


TAF: mancante

Osservazioni e previsioni meteorologiche di più di 4000 aeroporti (messaggi METAR e TAF).

Le stazioni disponibili sono rappresentate dai dischi gialli e rossi sulla carta.

Puntare il mouse per vedere il nome della stazione.

Clicca sopra per visualizzare le osservazioni e previsioni meteorologiche.

Per cambiare la mappa : fare clic sui pulsanti verdi con una croce nera per ingrandire, il pulsante verde con un trattino per diminuire, o sulla freccia verde per le mappe adiacenti.


METAR-TAF: